CheckWX is a tool to help pilots better visualize weather data.  It is not intended as a substitute for an official pre-flight weather briefing.

08:11:55 UTC

PAHN TAF
Haines Airport
Haines, Alaska, USA
PAHN 260550Z 2606/2706 30020G30KT 1SM -SN BLSN OVC015 WS020/14030KT TEMPO 2606/2609 1/4SM +SN BLSN VV008 FM260900 29015G25KT 1SM -SN BLSN VV008 WS020/14030KT FM261500 30015KT 3/4SM -SN OVC007 WS020/14040KT FM262300 03015G25KT 1SM -SN OVC007 WS020/14040KT FM270300 05015G25KT 4SM -SN OVC007 AMD LTD TO CLD VIS AND WIND

Jan-26@
06:00 UTC

Jan-26 @ 06:00 UTC

Jan-26@
09:00 UTC

Jan-26 @ 09:00 UTC

PAHN 260550Z 2606/2706 30020G30KT 1SM -SN BLSN OVC015 WS020/14030KT
Wind
  • 300° at 20 KTS
  • {Gusting to 30 KTS
Conditions
Light Snow, Blowing Snow
Cloud Levels
  • Overcast at 1,500' AGL

Jan-26@
06:00 UTC

Jan-26 @ 06:00 UTC

Jan-26@
09:00 UTC

Jan-26 @ 09:00 UTC

TEMPO 2606/2609 1/4SM +SN BLSN VV008

Temporary

Temporary Changes expected for less than half the time period

Conditions
Heavy Snow, Blowing Snow
Cloud Levels
  • Vertical visibility at 800' AGL

Jan-26@
09:00 UTC

Jan-26 @ 09:00 UTC

Jan-26@
15:00 UTC

Jan-26 @ 15:00 UTC

FM260900 29015G25KT 1SM -SN BLSN VV008 WS020/14030KT

From

From Standard forecast or significant change

Wind
  • 290° at 15 KTS
  • {Gusting to 25 KTS
Conditions
Light Snow, Blowing Snow
Cloud Levels
  • Vertical visibility at 800' AGL

Jan-26@
15:00 UTC

Jan-26 @ 15:00 UTC

Jan-26@
23:00 UTC

Jan-26 @ 23:00 UTC

FM261500 30015KT 3/4SM -SN OVC007 WS020/14040KT

From

From Standard forecast or significant change

Wind
  • 300° at 15 KTS
Conditions
Light Snow
Cloud Levels
  • Overcast at 700' AGL

Jan-26@
23:00 UTC

Jan-26 @ 23:00 UTC

Jan-27@
03:00 UTC

Jan-27 @ 03:00 UTC

FM262300 03015G25KT 1SM -SN OVC007 WS020/14040KT

From

From Standard forecast or significant change

Wind
  • 030° at 15 KTS
  • {Gusting to 25 KTS
Conditions
Light Snow
Cloud Levels
  • Overcast at 700' AGL

Jan-27@
03:00 UTC

Jan-27 @ 03:00 UTC

Jan-27@
06:00 UTC

Jan-27 @ 06:00 UTC

FM270300 05015G25KT 4SM -SN OVC007 AMD LTD TO CLD VIS AND WIND

From

From Standard forecast or significant change

Wind
  • 050° at 15 KTS
  • {Gusting to 25 KTS
Conditions
Light Snow
Cloud Levels
  • Overcast at 700' AGL